Time;durP1;ratioP1;P1;durP2;ratioP2;P2;SDS_P1;SDS_P2;PMS_P1;PMS_P2;Temp;Humidity;BMP_temperature;BMP_pressure;BME280_temperature;BME280_humidity;BME280_pressure;Samples;Min_cycle;Max_cycle;Signal;HPM_P1;HPM_P2
2024/03/03 00:00:59;;;;;;;20.20;3.97;;;10.80;26.40;;;;;;4997697;28;20198;-81
2024/03/03 00:03:25;;;;;;;19.97;5.10;;;10.80;26.90;;;;;;4999174;28;20198;-81
2024/03/03 00:05:51;;;;;;;19.70;5.07;;;10.80;27.40;;;;;;4981920;28;20171;-82
2024/03/03 00:08:16;;;;;;;21.03;5.03;;;10.70;28.40;;;;;;4999346;28;20170;-82
2024/03/03 00:10:42;;;;;;;19.77;4.90;;;10.70;29.70;;;;;;4981359;28;20257;-82
2024/03/03 00:13:08;;;;;;;21.00;5.73;;;10.70;32.70;;;;;;4998887;28;20503;-82
2024/03/03 00:15:33;;;;;;;20.20;5.27;;;10.60;34.30;;;;;;4999175;28;20163;-81
2024/03/03 00:17:59;;;;;;;17.93;4.60;;;10.60;36.40;;;;;;4981515;28;20655;-82
2024/03/03 00:20:25;;;;;;;19.20;5.83;;;10.60;37.20;;;;;;4997535;28;20202;-81
2024/03/03 00:22:50;;;;;;;19.60;5.57;;;10.60;38.20;;;;;;4998321;28;20191;-81
2024/03/03 00:25:16;;;;;;;20.60;4.50;;;10.60;40.00;;;;;;4998350;28;20163;-81
2024/03/03 00:27:42;;;;;;;21.27;4.90;;;10.70;39.30;;;;;;4998590;28;20246;-81
2024/03/03 00:30:08;;;;;;;19.33;5.77;;;10.70;39.90;;;;;;4980557;28;20477;-81
2024/03/03 00:32:33;;;;;;;19.88;5.93;;;10.70;40.80;;;;;;4998818;28;20178;-81
2024/03/03 00:34:59;;;;;;;22.60;5.70;;;10.70;41.70;;;;;;4999161;28;20159;-82
2024/03/03 00:37:25;;;;;;;19.70;5.67;;;10.70;41.10;;;;;;4999033;28;20270;-81
2024/03/03 00:39:50;;;;;;;21.87;6.10;;;10.70;40.50;;;;;;4998634;28;20564;-82
2024/03/03 00:42:16;;;;;;;20.13;6.30;;;10.80;39.90;;;;;;4999135;28;20187;-82
2024/03/03 00:44:42;;;;;;;22.13;6.30;;;10.80;39.70;;;;;;4999418;28;20171;-81
2024/03/03 00:47:07;;;;;;;19.97;6.37;;;10.90;36.50;;;;;;4981785;28;20175;-82
2024/03/03 00:49:33;;;;;;;23.60;6.00;;;10.90;33.90;;;;;;4998921;28;20163;-82
2024/03/03 00:51:59;;;;;;;21.10;6.40;;;10.90;33.20;;;;;;4997570;28;20218;-81
2024/03/03 00:54:25;;;;;;;19.55;6.15;;;10.90;33.60;;;;;;4981246;28;20167;-82
2024/03/03 00:56:50;;;;;;;21.10;6.10;;;11.00;33.80;;;;;;4997327;28;20655;-82
2024/03/03 00:59:16;;;;;;;22.53;7.47;;;10.90;32.80;;;;;;4997312;28;20234;-82
2024/03/03 01:01:42;;;;;;;20.70;5.87;;;10.90;32.10;;;;;;4981078;28;20191;-82
2024/03/03 01:04:07;;;;;;;20.17;5.33;;;11.00;29.80;;;;;;4998361;28;20225;-81
2024/03/03 01:06:33;;;;;;;19.17;5.60;;;11.00;29.50;;;;;;4999378;28;20645;-81
2024/03/03 01:08:58;;;;;;;19.43;5.27;;;10.90;30.00;;;;;;4998611;28;20194;-82
2024/03/03 01:11:24;;;;;;;20.40;6.30;;;10.90;32.80;;;;;;4998824;28;20691;-81
2024/03/03 01:13:50;;;;;;;20.40;6.00;;;11.00;30.30;;;;;;4998379;28;20529;-81
2024/03/03 01:16:15;;;;;;;21.77;6.20;;;10.90;30.20;;;;;;4996926;28;20175;-82
2024/03/03 01:18:41;;;;;;;22.33;5.30;;;11.00;29.10;;;;;;4998630;28;20207;-82
2024/03/03 01:21:07;;;;;;;21.80;6.87;;;10.90;29.50;;;;;;4981115;28;20695;-82
2024/03/03 01:23:32;;;;;;;21.27;6.07;;;10.90;29.90;;;;;;4997879;28;20202;-81
2024/03/03 01:25:58;;;;;;;21.47;5.53;;;10.80;30.60;;;;;;4998681;28;20163;-81
2024/03/03 01:28:23;;;;;;;19.73;5.70;;;10.80;27.50;;;;;;4998343;28;20246;-81
2024/03/03 01:30:49;;;;;;;24.77;6.50;;;10.90;26.80;;;;;;4998221;28;20203;-81
2024/03/03 01:33:15;;;;;;;21.80;6.70;;;10.90;26.50;;;;;;4998479;28;20171;-81
2024/03/03 01:35:41;;;;;;;19.83;6.13;;;10.90;25.60;;;;;;4998309;28;20171;-81
2024/03/03 01:38:06;;;;;;;19.10;5.90;;;10.80;26.00;;;;;;4980635;28;20175;-82
2024/03/03 01:40:35;;;;;;;21.43;5.87;;;10.80;25.00;;;;;;4981437;28;20187;-82
2024/03/03 01:43:03;;;;;;;19.48;5.65;;;10.80;26.80;;;;;;4984370;28;20728;-81
2024/03/03 01:45:30;;;;;;;19.05;4.53;;;10.80;27.50;;;;;;5001755;28;20159;-82
2024/03/03 01:47:55;;;;;;;23.05;5.88;;;10.80;27.30;;;;;;5001788;28;20168;-81
2024/03/03 01:50:22;;;;;;;21.30;5.50;;;10.90;25.50;;;;;;5001919;28;20183;-81
2024/03/03 01:52:50;;;;;;;21.60;6.00;;;10.80;24.60;;;;;;5001538;28;20167;-81
2024/03/03 01:55:22;;;;;;;20.25;5.03;;;10.80;25.30;;;;;;4984322;28;20194;-82
2024/03/03 01:57:50;;;;;;;27.05;5.75;;;10.80;27.60;;;;;;4984109;28;20175;-81
2024/03/03 02:00:16;;;;;;;19.38;5.72;;;10.80;26.50;;;;;;4984354;28;20278;-81
2024/03/03 02:02:45;;;;;;;25.57;5.90;;;10.80;24.70;;;;;;5000503;28;20226;-81
2024/03/03 02:05:13;;;;;;;20.85;5.57;;;10.70;26.70;;;;;;5002033;28;20775;-81
2024/03/03 02:07:39;;;;;;;20.17;5.70;;;10.80;26.80;;;;;;5002186;28;20166;-81
2024/03/03 02:10:08;;;;;;;19.15;5.68;;;10.70;27.20;;;;;;5001804;28;20175;-80
2024/03/03 02:12:35;;;;;;;21.50;5.75;;;10.70;29.20;;;;;;5001914;28;20189;-81
2024/03/03 02:15:00;;;;;;;20.00;4.87;;;10.60;28.60;;;;;;5001369;28;20175;-81
2024/03/03 02:17:26;;;;;;;22.53;5.80;;;10.70;26.70;;;;;;5001226;28;20414;-81
2024/03/03 02:19:52;;;;;;;19.63;5.70;;;10.60;29.40;;;;;;4984225;28;20254;-81
2024/03/03 02:22:17;;;;;;;22.33;5.77;;;10.50;31.20;;;;;;4983808;28;20217;-82
2024/03/03 02:24:46;;;;;;;20.37;5.97;;;10.60;32.10;;;;;;5001866;28;20211;-81
2024/03/03 02:27:12;;;;;;;21.20;5.28;;;10.50;31.70;;;;;;5001146;28;20224;-81
2024/03/03 02:29:38;;;;;;;18.80;5.33;;;10.50;32.60;;;;;;4983588;28;20179;-81
2024/03/03 02:32:03;;;;;;;19.70;4.40;;;10.50;33.30;;;;;;5001834;28;20428;-81
2024/03/03 02:34:30;;;;;;;18.10;5.60;;;10.50;33.40;;;;;;4983814;28;20645;-81
2024/03/03 02:36:56;;;;;;;20.95;5.43;;;10.50;33.70;;;;;;5001359;28;20187;-81
2024/03/03 02:39:22;;;;;;;22.70;5.53;;;10.40;36.80;;;;;;5001785;28;20164;-81
2024/03/03 02:41:47;;;;;;;24.83;6.07;;;10.40;37.40;;;;;;5000210;28;20213;-81
2024/03/03 02:44:13;;;;;;;19.97;4.87;;;10.40;38.80;;;;;;5002016;28;20552;-81
2024/03/03 02:46:38;;;;;;;22.07;5.53;;;10.30;40.90;;;;;;4983959;28;20167;-81
2024/03/03 02:49:04;;;;;;;19.80;5.77;;;10.30;40.10;;;;;;5000336;28;20262;-81
2024/03/03 02:51:30;;;;;;;23.40;5.20;;;10.30;41.30;;;;;;5000417;28;20210;-81
2024/03/03 02:53:56;;;;;;;21.50;4.73;;;10.30;43.90;;;;;;5000677;28;20164;-81
2024/03/03 02:56:21;;;;;;;19.90;6.20;;;10.20;43.50;;;;;;5002136;28;20172;-81
2024/03/03 02:58:47;;;;;;;21.03;6.03;;;10.20;46.90;;;;;;5001623;28;20541;-81
2024/03/03 03:01:13;;;;;;;18.97;5.00;;;10.20;44.70;;;;;;5001903;28;20431;-81
2024/03/03 03:03:38;;;;;;;19.30;5.73;;;10.20;43.90;;;;;;5000992;28;20695;-81
2024/03/03 03:06:08;;;;;;;19.63;5.50;;;10.20;44.20;;;;;;5001092;28;20628;-81
2024/03/03 03:08:33;;;;;;;19.27;5.55;;;10.10;46.30;;;;;;5000881;28;20163;-81
2024/03/03 03:10:59;;;;;;;18.67;4.80;;;10.10;47.30;;;;;;4999587;28;20190;-81
2024/03/03 03:13:25;;;;;;;20.47;4.70;;;10.10;48.50;;;;;;5000828;28;20250;-81
2024/03/03 03:15:50;;;;;;;20.57;4.03;;;10.10;46.80;;;;;;5000350;28;20195;-81
2024/03/03 03:18:16;;;;;;;20.10;5.60;;;10.10;48.90;;;;;;5000960;28;20409;-81
2024/03/03 03:20:42;;;;;;;19.20;4.43;;;10.10;46.30;;;;;;5000796;28;20202;-81
2024/03/03 03:23:07;;;;;;;18.80;5.20;;;10.00;50.60;;;;;;5000320;28;20206;-81
2024/03/03 03:25:33;;;;;;;22.17;6.00;;;9.90;55.20;;;;;;5000234;28;20170;-81
2024/03/03 03:27:59;;;;;;;21.73;4.88;;;9.90;56.80;;;;;;4999836;28;20191;-82
2024/03/03 03:30:25;;;;;;;19.97;5.13;;;9.80;58.10;;;;;;4982610;28;20183;-81
2024/03/03 03:32:50;;;;;;;20.43;5.10;;;9.80;60.40;;;;;;5000075;28;20167;-81
2024/03/03 03:35:16;;;;;;;20.20;5.90;;;9.70;65.60;;;;;;4999988;28;20171;-81
2024/03/03 03:37:43;;;;;;;21.97;5.60;;;9.70;68.00;;;;;;4999143;28;20174;-81
2024/03/03 03:40:09;;;;;;;20.67;5.20;;;9.60;70.90;;;;;;4999818;28;20282;-81
2024/03/03 03:42:36;;;;;;;19.45;4.75;;;9.60;74.00;;;;;;4983286;28;20223;-81
2024/03/03 03:45:03;;;;;;;19.90;5.68;;;9.60;74.80;;;;;;4999691;28;20175;-81
2024/03/03 03:47:29;;;;;;;19.65;4.90;;;9.70;78.10;;;;;;5000055;28;20580;-81
2024/03/03 03:49:55;;;;;;;22.13;5.85;;;9.70;79.10;;;;;;5000318;28;20214;-81
2024/03/03 03:52:21;;;;;;;20.17;6.10;;;9.70;81.60;;;;;;4999532;28;20171;-81
2024/03/03 03:54:46;;;;;;;22.97;6.50;;;9.70;81.50;;;;;;5000125;28;20714;-81
2024/03/03 03:57:12;;;;;;;20.30;6.57;;;9.70;83.80;;;;;;4999807;28;20527;-81
2024/03/03 03:59:37;;;;;;;22.23;6.43;;;9.70;86.50;;;;;;4999554;28;20168;-81
2024/03/03 04:02:05;;;;;;;22.07;7.70;;;9.70;87.50;;;;;;4982099;28;20289;-81
2024/03/03 04:04:34;;;;;;;23.25;7.97;;;9.80;87.60;;;;;;4999395;28;20159;-81
2024/03/03 04:07:01;;;;;;;21.50;6.75;;;9.80;85.60;;;;;;4998628;28;20163;-81
2024/03/03 04:09:28;;;;;;;22.70;7.20;;;9.80;86.60;;;;;;4999198;28;20221;-81
2024/03/03 04:11:53;;;;;;;24.75;7.13;;;9.90;84.30;;;;;;4997499;28;20183;-81
2024/03/03 04:14:19;;;;;;;22.57;7.17;;;9.90;86.00;;;;;;4999848;28;20171;-81
2024/03/03 04:16:45;;;;;;;21.40;6.60;;;9.90;86.60;;;;;;4998775;28;20163;-81
2024/03/03 04:19:10;;;;;;;23.47;7.70;;;9.90;86.00;;;;;;4999097;28;20509;-81
2024/03/03 04:21:43;;;;;;;22.67;7.90;;;9.90;87.70;;;;;;4999230;28;20235;-81
2024/03/03 04:24:10;;;;;;;20.48;6.65;;;9.90;88.20;;;;;;4982076;28;20290;-81
2024/03/03 04:26:36;;;;;;;24.98;7.55;;;9.90;87.60;;;;;;4999584;28;20525;-81
2024/03/03 04:29:02;;;;;;;23.85;7.57;;;9.90;86.80;;;;;;4998531;28;20649;-81
2024/03/03 04:31:31;;;;;;;20.50;7.07;;;9.90;87.80;;;;;;4981546;28;20197;-81
2024/03/03 04:33:57;;;;;;;26.48;8.85;;;9.90;87.20;;;;;;4999219;28;20568;-81
2024/03/03 04:36:23;;;;;;;23.55;7.60;;;9.90;90.50;;;;;;4999474;28;20524;-81
2024/03/03 04:38:49;;;;;;;24.57;7.97;;;9.90;90.60;;;;;;4981945;28;20240;-81
2024/03/03 04:41:18;;;;;;;26.30;8.10;;;9.90;91.40;;;;;;4998888;28;20191;-81
2024/03/03 04:43:45;;;;;;;21.73;6.40;;;9.90;91.30;;;;;;4999222;28;20457;-81
2024/03/03 04:46:11;;;;;;;24.42;7.82;;;10.00;90.20;;;;;;4981872;28;20206;-81
2024/03/03 04:48:38;;;;;;;26.45;7.45;;;9.90;91.80;;;;;;4981795;28;20178;-81
2024/03/03 04:51:04;;;;;;;24.77;7.88;;;10.00;90.70;;;;;;4981501;28;20182;-81
2024/03/03 04:53:30;;;;;;;25.85;8.48;;;9.90;91.90;;;;;;4998631;28;20226;-81
2024/03/03 04:55:56;;;;;;;27.80;9.23;;;9.90;91.10;;;;;;4981652;28;20171;-81
2024/03/03 04:58:22;;;;;;;27.77;8.40;;;9.90;90.30;;;;;;4998694;28;20402;-81
2024/03/03 05:00:47;;;;;;;26.30;9.43;;;9.90;91.10;;;;;;4998701;28;20581;-81
2024/03/03 05:03:13;;;;;;;29.53;9.60;;;9.80;91.60;;;;;;4981337;28;20233;-81
2024/03/03 05:05:39;;;;;;;24.33;6.73;;;9.80;92.70;;;;;;4999307;28;20159;-81
2024/03/03 05:08:05;;;;;;;25.03;8.77;;;9.80;92.80;;;;;;4999079;28;20168;-81
2024/03/03 05:10:30;;;;;;;28.63;9.65;;;9.80;93.70;;;;;;4998556;28;20191;-81
2024/03/03 05:12:56;;;;;;;24.93;7.87;;;9.80;94.60;;;;;;4997667;28;20585;-81
2024/03/03 05:15:22;;;;;;;25.87;8.47;;;9.90;93.90;;;;;;4999108;28;20171;-81
2024/03/03 05:17:47;;;;;;;24.67;8.43;;;9.80;94.70;;;;;;5003102;28;20159;-81
2024/03/03 05:20:13;;;;;;;25.00;8.43;;;9.80;95.80;;;;;;5002279;28;20208;-81
2024/03/03 05:22:39;;;;;;;25.23;8.53;;;9.80;95.20;;;;;;5003073;28;20191;-81
2024/03/03 05:25:05;;;;;;;26.17;8.90;;;9.80;95.60;;;;;;4985208;28;20194;-81
2024/03/03 05:27:33;;;;;;;25.42;8.82;;;9.80;95.80;;;;;;5002516;28;20246;-81
2024/03/03 05:30:02;;;;;;;27.42;9.27;;;9.80;96.70;;;;;;5002648;28;20163;-81
2024/03/03 05:32:27;;;;;;;25.52;9.25;;;9.70;97.50;;;;;;5002173;28;20518;-81
2024/03/03 05:34:53;;;;;;;27.17;9.33;;;9.70;97.50;;;;;;5002543;28;20173;-81
2024/03/03 05:37:19;;;;;;;25.43;8.87;;;9.70;98.20;;;;;;5001702;28;20164;-81
2024/03/03 05:39:44;;;;;;;25.97;9.03;;;9.70;97.10;;;;;;5001976;28;20172;-81
2024/03/03 05:42:11;;;;;;;26.60;9.40;;;9.70;98.10;;;;;;5002556;28;20222;-82
2024/03/03 05:44:37;;;;;;;27.52;8.52;;;9.80;97.50;;;;;;4984438;28;20171;-82
2024/03/03 05:47:03;;;;;;;28.90;9.93;;;9.70;97.60;;;;;;5002539;28;20625;-82
2024/03/03 05:49:29;;;;;;;23.13;8.40;;;9.70;99.00;;;;;;4984038;28;20173;-82
2024/03/03 05:51:58;;;;;;;25.97;8.73;;;9.70;98.40;;;;;;5001864;28;20835;-81
2024/03/03 05:54:23;;;;;;;22.30;8.50;;;9.60;99.70;;;;;;4984164;28;20175;-82
2024/03/03 05:56:49;;;;;;;23.77;8.57;;;9.60;99.90;;;;;;4984825;28;20175;-82
2024/03/03 05:59:15;;;;;;;23.83;7.83;;;9.60;99.90;;;;;;5002373;28;20194;-81
2024/03/03 06:01:49;;;;;;;22.80;7.87;;;9.60;99.90;;;;;;5002108;28;20221;-81
2024/03/03 06:04:18;;;;;;;25.27;7.97;;;9.60;99.90;;;;;;5002054;28;20233;-82
2024/03/03 06:06:45;;;;;;;28.80;9.55;;;9.60;99.90;;;;;;5002126;28;20195;-82
2024/03/03 06:09:12;;;;;;;23.65;8.02;;;9.50;99.90;;;;;;5001850;28;20247;-82
2024/03/03 06:11:42;;;;;;;27.05;8.60;;;9.50;99.90;;;;;;5000431;28;20253;-82
2024/03/03 06:14:11;;;;;;;26.23;8.52;;;9.50;99.90;;;;;;5002302;28;20163;-81
2024/03/03 06:16:37;;;;;;;33.05;9.55;;;9.50;99.90;;;;;;4984622;28;20175;-82
2024/03/03 06:19:04;;;;;;;26.75;8.70;;;9.40;99.90;;;;;;5001991;28;20168;-81
2024/03/03 06:21:30;;;;;;;25.40;9.05;;;9.30;99.90;;;;;;5001065;28;20216;-82
2024/03/03 06:23:56;;;;;;;29.53;9.20;;;9.30;99.90;;;;;;4984097;28;20203;-82
2024/03/03 06:26:24;;;;;;;25.85;8.88;;;9.30;99.90;;;;;;4983503;28;20441;-81
2024/03/03 06:28:52;;;;;;;22.95;8.98;;;9.30;99.90;;;;;;5001588;28;20160;-82
2024/03/03 06:31:18;;;;;;;26.85;9.75;;;9.30;99.90;;;;;;4984059;28;20281;-82
2024/03/03 06:33:44;;;;;;;23.70;8.27;;;9.30;99.90;;;;;;5000977;28;20206;-82
2024/03/03 06:36:16;;;;;;;25.07;8.50;;;9.40;99.90;;;;;;5001173;28;20223;-82
2024/03/03 06:38:43;;;;;;;34.60;10.60;;;9.30;99.90;;;;;;5000912;28;20171;-82
2024/03/03 06:41:09;;;;;;;26.80;9.55;;;9.30;99.90;;;;;;5000938;28;20183;-82
2024/03/03 06:43:34;;;;;;;28.20;8.33;;;9.30;99.90;;;;;;5000087;28;20607;-82
2024/03/03 06:46:00;;;;;;;30.00;9.33;;;9.30;99.90;;;;;;5000994;28;20167;-82
2024/03/03 06:48:26;;;;;;;31.37;7.77;;;9.40;99.90;;;;;;5001473;28;20167;-82
2024/03/03 06:50:52;;;;;;;24.87;8.80;;;9.50;99.90;;;;;;5000546;28;20188;-82
2024/03/03 06:53:17;;;;;;;23.77;8.65;;;9.40;99.90;;;;;;5000247;28;20166;-82
2024/03/03 06:55:43;;;;;;;27.70;8.13;;;9.50;99.90;;;;;;5001283;28;20242;-82
2024/03/03 06:58:09;;;;;;;25.92;9.25;;;9.40;99.90;;;;;;5001226;28;20167;-82
2024/03/03 07:00:35;;;;;;;27.87;8.30;;;9.40;99.90;;;;;;5000268;28;20187;-81
2024/03/03 07:05:34;;;;;;;35.90;9.90;;;9.50;99.90;;;;;;5000083;28;20147;-81
2024/03/03 07:08:00;;;;;;;26.23;9.65;;;9.50;99.90;;;;;;4982343;28;20604;-81
2024/03/03 07:10:26;;;;;;;25.98;8.98;;;9.60;99.90;;;;;;4999905;28;20195;-81
2024/03/03 07:12:52;;;;;;;27.03;8.43;;;9.70;99.90;;;;;;4982278;28;20175;-81
2024/03/03 07:15:17;;;;;;;24.47;8.20;;;9.60;99.90;;;;;;4982077;28;20493;-81
2024/03/03 07:17:43;;;;;;;27.70;8.20;;;9.60;99.90;;;;;;4997039;28;20473;-81
2024/03/03 07:20:10;;;;;;;24.85;8.25;;;9.70;99.90;;;;;;4998636;28;20187;-81
2024/03/03 07:22:36;;;;;;;27.63;8.20;;;9.70;99.90;;;;;;4999143;28;20187;-81
2024/03/03 07:25:03;;;;;;;26.40;8.88;;;9.80;99.90;;;;;;4998468;28;20199;-81
2024/03/03 07:27:29;;;;;;;22.10;7.40;;;9.90;99.90;;;;;;4999040;28;20166;-81
2024/03/03 07:29:55;;;;;;;23.92;8.82;;;10.00;99.90;;;;;;4998735;28;20190;-81
2024/03/03 07:32:21;;;;;;;24.77;9.13;;;10.10;98.80;;;;;;4998508;28;20163;-80
2024/03/03 07:34:49;;;;;;;30.90;8.27;;;10.20;98.20;;;;;;4981244;28;20924;-81
2024/03/03 07:37:15;;;;;;;23.58;8.23;;;10.20;95.90;;;;;;4998297;28;20398;-81
2024/03/03 07:39:42;;;;;;;23.92;8.25;;;10.30;94.00;;;;;;4996353;28;20186;-81
2024/03/03 07:42:09;;;;;;;28.80;8.85;;;10.30;92.50;;;;;;4998060;28;20251;-81
2024/03/03 07:44:35;;;;;;;22.90;8.05;;;10.30;93.10;;;;;;4980872;28;20171;-81
2024/03/03 07:47:01;;;;;;;27.73;8.63;;;10.40;93.90;;;;;;4997468;28;20171;-81
2024/03/03 07:49:26;;;;;;;23.83;7.77;;;10.50;93.60;;;;;;4997396;28;20444;-81
2024/03/03 07:51:52;;;;;;;28.10;9.27;;;10.50;92.60;;;;;;4998930;28;20190;-81
2024/03/03 07:54:18;;;;;;;25.07;8.90;;;10.50;92.10;;;;;;4997709;28;20587;-81
2024/03/03 07:56:44;;;;;;;25.03;9.67;;;10.50;92.50;;;;;;4997847;28;20171;-81
2024/03/03 07:59:09;;;;;;;34.65;10.05;;;10.50;93.80;;;;;;4998999;28;20159;-81
2024/03/03 08:01:35;;;;;;;24.07;9.57;;;10.50;93.00;;;;;;4999265;28;20191;-81
2024/03/03 08:04:06;;;;;;;27.77;8.77;;;10.50;92.80;;;;;;4999123;28;20202;-81
2024/03/03 08:06:32;;;;;;;23.55;7.43;;;10.50;92.50;;;;;;4999923;28;20493;-81
2024/03/03 08:09:03;;;;;;;26.83;8.13;;;10.40;92.70;;;;;;4998962;28;20237;-81
2024/03/03 08:11:36;;;;;;;24.92;8.25;;;10.50;91.60;;;;;;4999263;28;20481;-81
2024/03/03 08:14:02;;;;;;;22.38;8.00;;;10.60;92.70;;;;;;4998212;28;20525;-81
2024/03/03 08:16:30;;;;;;;24.05;7.90;;;10.60;92.20;;;;;;4997703;28;20179;-81
2024/03/03 08:18:55;;;;;;;25.00;8.63;;;10.60;90.60;;;;;;4981144;28;20175;-81
2024/03/03 08:21:21;;;;;;;21.97;7.40;;;10.60;90.50;;;;;;4999239;28;20664;-82
2024/03/03 08:23:46;;;;;;;24.30;8.20;;;10.70;92.30;;;;;;4998276;28;20255;-81
2024/03/03 08:26:15;;;;;;;24.63;7.83;;;10.80;87.30;;;;;;4999046;28;20167;-81
2024/03/03 08:28:41;;;;;;;22.52;7.43;;;10.80;88.30;;;;;;4998584;28;20207;-81
2024/03/03 08:31:07;;;;;;;27.13;8.80;;;10.90;83.70;;;;;;4999564;28;20211;-82
2024/03/03 08:33:32;;;;;;;22.97;8.13;;;10.90;82.90;;;;;;4998440;28;20540;-81
2024/03/03 08:35:58;;;;;;;25.30;8.30;;;10.90;88.90;;;;;;4998088;28;20167;-81
2024/03/03 08:38:24;;;;;;;25.27;7.20;;;11.00;88.50;;;;;;4998541;28;20178;-81
2024/03/03 08:40:50;;;;;;;24.45;8.48;;;11.00;74.40;;;;;;4997837;28;20480;-81
2024/03/03 08:43:16;;;;;;;25.93;7.60;;;11.00;70.90;;;;;;4998141;28;20198;-82
2024/03/03 08:45:41;;;;;;;23.77;8.60;;;11.00;67.10;;;;;;4998459;28;20210;-81
2024/03/03 08:48:07;;;;;;;24.03;8.30;;;10.90;68.00;;;;;;4998445;28;20309;-81
2024/03/03 08:50:34;;;;;;;26.83;8.13;;;10.90;65.30;;;;;;4979728;28;20187;-82
2024/03/03 08:53:00;;;;;;;26.20;9.40;;;11.00;67.00;;;;;;4998662;28;20241;-81
2024/03/03 08:55:26;;;;;;;24.17;7.60;;;11.10;67.10;;;;;;4998804;28;20548;-81
2024/03/03 08:57:52;;;;;;;23.70;8.00;;;11.30;66.90;;;;;;4997790;28;20169;-81
2024/03/03 09:00:17;;;;;;;26.43;8.40;;;11.30;56.10;;;;;;4997863;28;20560;-81
2024/03/03 09:02:43;;;;;;;26.63;8.53;;;11.30;53.90;;;;;;4980290;28;20680;-81
2024/03/03 09:05:11;;;;;;;24.40;8.70;;;11.40;52.60;;;;;;4996604;28;20493;-81
2024/03/03 09:07:37;;;;;;;24.38;7.80;;;11.40;55.80;;;;;;4980537;28;20171;-81
2024/03/03 09:10:04;;;;;;;25.23;8.65;;;11.50;57.70;;;;;;4998141;28;20672;-81
2024/03/03 09:12:30;;;;;;;24.20;7.75;;;11.60;48.60;;;;;;4998001;28;20194;-81
2024/03/03 09:14:56;;;;;;;28.40;10.10;;;11.60;41.30;;;;;;4997671;28;20171;-81
2024/03/03 09:17:22;;;;;;;25.80;9.10;;;11.60;46.70;;;;;;4997241;28;20526;-81
2024/03/03 09:19:48;;;;;;;23.20;7.93;;;11.60;45.40;;;;;;4997508;28;20167;-81
2024/03/03 09:22:14;;;;;;;25.30;9.07;;;11.70;42.50;;;;;;4980849;28;20171;-81
2024/03/03 09:24:46;;;;;;;25.90;8.70;;;11.80;36.20;;;;;;4996432;28;20243;-81
2024/03/03 09:27:13;;;;;;;25.92;9.52;;;11.80;41.50;;;;;;4996983;28;20167;-81
2024/03/03 09:29:39;;;;;;;24.98;9.15;;;11.80;33.20;;;;;;4979824;28;20171;-81
2024/03/03 09:32:06;;;;;;;26.98;7.55;;;11.90;29.70;;;;;;4997804;28;20183;-82
2024/03/03 09:34:31;;;;;;;22.80;8.40;;;11.80;25.30;;;;;;4998435;28;20536;-82
2024/03/03 09:36:58;;;;;;;26.17;8.55;;;11.70;31.40;;;;;;4999255;28;20421;-81
2024/03/03 09:39:25;;;;;;;24.50;8.73;;;11.80;35.60;;;;;;4998568;28;20171;-82
2024/03/03 09:41:57;;;;;;;24.60;8.63;;;11.70;25.10;;;;;;4998104;28;20202;-81
2024/03/03 09:44:27;;;;;;;25.83;8.85;;;11.80;23.50;;;;;;4980251;28;20199;-81
2024/03/03 09:46:53;;;;;;;29.10;8.73;;;11.90;22.90;;;;;;4998386;28;20203;-81
2024/03/03 09:49:22;;;;;;;23.70;7.95;;;12.00;23.30;;;;;;4997838;28;20166;-81
2024/03/03 09:51:49;;;;;;;27.38;8.40;;;11.90;17.70;;;;;;4997663;28;20184;-81
2024/03/03 09:54:20;;;;;;;25.25;9.00;;;12.00;19.60;;;;;;4997077;28;20640;-81
2024/03/03 09:56:47;;;;;;;25.30;8.20;;;12.10;23.00;;;;;;4980621;28;20178;-82
2024/03/03 09:59:17;;;;;;;28.23;9.30;;;12.30;17.10;;;;;;4996728;28;20182;-81
2024/03/03 10:01:59;;;;;;;26.15;8.57;;;12.40;11.40;;;;;;4997223;28;20203;-81
2024/03/03 10:04:28;;;;;;;23.45;8.48;;;12.50;9.60;;;;;;5000210;28;20565;-81
2024/03/03 10:06:59;;;;;;;23.08;8.52;;;12.50;7.70;;;;;;4982552;28;20167;-81
2024/03/03 10:09:26;;;;;;;27.27;9.40;;;12.60;1.00;;;;;;4998741;28;20160;-81
2024/03/03 10:11:57;;;;;;;22.17;7.97;;;12.60;1.00;;;;;;4999084;28;20211;-81
2024/03/03 10:14:26;;;;;;;25.55;8.18;;;12.60;1.00;;;;;;4983027;28;20171;-81
2024/03/03 10:16:56;;;;;;;24.48;8.52;;;12.70;1.00;;;;;;4998991;28;20198;-81
2024/03/03 10:19:21;;;;;;;23.83;7.80;;;12.70;1.00;;;;;;4998931;28;20176;-81
2024/03/03 10:21:50;;;;;;;24.93;8.80;;;12.90;1.00;;;;;;5000019;28;20183;-81
2024/03/03 10:24:23;;;;;;;26.95;8.50;;;13.00;1.00;;;;;;4998208;28;20228;-81
2024/03/03 10:27:00;;;;;;;26.67;8.38;;;12.90;1.00;;;;;;4999828;28;20419;-81
2024/03/03 10:29:27;;;;;;;21.38;7.47;;;13.00;1.00;;;;;;4999769;28;20379;-81
2024/03/03 10:31:55;;;;;;;23.98;8.32;;;13.00;1.00;;;;;;4981587;28;20191;-81
2024/03/03 10:34:21;;;;;;;24.60;8.20;;;12.90;1.00;;;;;;4982546;28;20652;-81
2024/03/03 10:36:47;;;;;;;27.77;8.57;;;13.10;1.00;;;;;;4982285;28;20263;-81
2024/03/03 10:39:14;;;;;;;26.02;7.72;;;13.30;1.00;;;;;;4999866;28;20172;-81
2024/03/03 10:41:40;;;;;;;28.70;9.90;;;13.50;1.00;;;;;;4981963;28;20199;-81
2024/03/03 10:44:09;;;;;;;23.90;8.77;;;13.50;1.00;;;;;;4982307;28;20528;-81
2024/03/03 10:46:40;;;;;;;25.37;8.57;;;13.60;1.00;;;;;;4999895;28;20254;-81
2024/03/03 10:49:11;;;;;;;28.23;8.13;;;13.90;1.00;;;;;;4998101;28;20417;-81
2024/03/03 10:51:36;;;;;;;23.30;8.53;;;14.20;1.00;;;;;;4999713;28;20422;-81
2024/03/03 10:54:02;;;;;;;23.30;7.93;;;14.10;1.00;;;;;;4999312;28;20414;-81
2024/03/03 10:56:29;;;;;;;24.80;7.20;;;14.40;1.00;;;;;;4998540;28;20229;-81
2024/03/03 10:58:56;;;;;;;24.13;7.77;;;14.20;1.00;;;;;;4997687;28;20434;-81
2024/03/03 11:01:22;;;;;;;23.60;7.90;;;14.10;1.00;;;;;;4997711;28;20529;-81
2024/03/03 11:03:52;;;;;;;23.77;8.40;;;14.00;1.00;;;;;;4998948;28;20576;-81
2024/03/03 11:06:18;;;;;;;27.23;9.30;;;14.10;1.00;;;;;;4999206;28;20379;-81
2024/03/03 11:08:51;;;;;;;26.53;8.20;;;14.00;1.00;;;;;;4999421;28;20413;-81
2024/03/03 11:11:22;;;;;;;23.53;7.50;;;14.20;1.00;;;;;;4999315;28;20254;-81
2024/03/03 11:13:56;;;;;;;22.40;7.80;;;14.50;1.00;;;;;;4997938;28;20430;-81
2024/03/03 11:16:27;;;;;;;23.13;7.33;;;14.80;1.00;;;;;;4999480;28;20406;-81
2024/03/03 11:18:55;;;;;;;24.80;8.30;;;14.90;1.00;;;;;;4999203;28;20718;-81
2024/03/03 11:21:31;;;;;;;25.70;8.60;;;15.00;1.00;;;;;;4999196;28;20430;-81
2024/03/03 11:24:05;;;;;;;27.60;8.37;;;14.90;1.00;;;;;;4998946;28;20511;-81
2024/03/03 11:26:41;;;;;;;24.40;8.70;;;14.90;1.00;;;;;;4999269;28;20386;-81
2024/03/03 11:29:09;;;;;;;23.37;8.30;;;14.90;1.00;;;;;;4999331;28;20418;-81
2024/03/03 11:31:35;;;;;;;26.40;8.40;;;14.80;1.00;;;;;;4999733;28;20434;-82
2024/03/03 11:34:03;;;;;;;23.87;6.97;;;15.00;1.00;;;;;;4981382;28;20441;-81
2024/03/03 11:36:30;;;;;;;24.20;7.93;;;15.00;1.00;;;;;;4999061;28;20407;-82
2024/03/03 11:38:58;;;;;;;26.73;8.30;;;15.20;1.00;;;;;;4999208;28;20402;-82
2024/03/03 11:41:24;;;;;;;22.83;8.10;;;15.40;1.00;;;;;;4999052;28;20426;-81
2024/03/03 11:43:51;;;;;;;29.50;8.40;;;15.50;1.00;;;;;;4998276;28;20964;-81
2024/03/03 11:46:48;;;;;;;26.87;8.57;;;15.60;1.00;;;;;;4999334;28;20657;-82
2024/03/03 11:49:22;;;;;;;23.80;8.47;;;15.50;1.00;;;;;;4998960;28;20905;-82
2024/03/03 11:51:48;;;;;;;24.37;8.87;;;15.60;1.00;;;;;;4998777;28;20504;-82
2024/03/03 11:54:28;;;;;;;24.43;8.60;;;15.50;1.00;;;;;;4997750;28;20406;-82
2024/03/03 11:56:59;;;;;;;25.40;7.13;;;15.20;1.00;;;;;;4998520;28;20383;-82
2024/03/03 11:59:32;;;;;;;27.73;8.27;;;15.70;1.00;;;;;;4998168;28;20391;-82
2024/03/03 12:01:59;;;;;;;25.07;8.20;;;16.00;1.00;;;;;;4997162;28;20439;-82
2024/03/03 12:04:25;;;;;;;22.20;7.40;;;15.90;1.00;;;;;;4980758;28;20507;-82
2024/03/03 12:06:51;;;;;;;24.83;7.77;;;16.10;1.00;;;;;;4998511;28;20490;-82
2024/03/03 12:09:20;;;;;;;22.70;8.20;;;16.50;1.00;;;;;;4999553;28;20485;-82
2024/03/03 12:11:50;;;;;;;24.10;7.73;;;16.60;1.00;;;;;;5000915;28;20180;-82
2024/03/03 12:14:16;;;;;;;23.77;8.20;;;17.00;1.00;;;;;;4998420;28;20406;-82
2024/03/03 12:16:42;;;;;;;21.87;7.90;;;17.10;1.00;;;;;;4998497;28;20457;-82
2024/03/03 12:19:10;;;;;;;25.40;8.47;;;17.10;1.00;;;;;;4998263;28;20441;-82
2024/03/03 12:21:39;;;;;;;26.23;7.97;;;16.90;1.00;;;;;;4998108;28;20426;-82
2024/03/03 12:24:08;;;;;;;24.70;7.50;;;17.10;1.00;;;;;;4997530;28;20466;-82
2024/03/03 12:26:38;;;;;;;25.87;7.53;;;16.90;1.00;;;;;;4998467;28;20409;-82
2024/03/03 12:29:03;;;;;;;23.40;8.47;;;17.10;1.00;;;;;;4997960;28;20406;-82
2024/03/03 12:31:30;;;;;;;23.07;8.90;;;17.30;1.00;;;;;;4997406;28;20434;-82
2024/03/03 12:34:05;;;;;;;22.53;6.87;;;17.20;1.00;;;;;;4997593;28;20215;-82
2024/03/03 12:36:31;;;;;;;23.47;8.27;;;17.20;1.00;;;;;;4998153;28;20845;-82
2024/03/03 12:38:57;;;;;;;23.47;7.90;;;17.50;1.00;;;;;;4997230;28;20414;-82
2024/03/03 12:41:26;;;;;;;22.83;7.60;;;17.60;1.00;;;;;;4998618;28;20214;-82
2024/03/03 12:44:17;;;;;;;20.60;6.50;;;17.50;1.00;;;;;;4997773;28;20266;-82